Tiempo atmosférico en la estación meteorológica de Astorga, León (919 m.)



Fecha
DESCASC
Temp. máxima en grados centígrados (hora)
DESCASC
Temp. mínima en grados centígrados (hora)
DESCASC
Temp. media en grados centígrados
DESCASC
Racha de viento máxima en m/sg (hora)
DESCASC
Velocidad máxima media en intervalos de 10 minutos(hora)
DESCASC
Precipitaciones diarias en mm
DESCASC
Precipitaciones de 00:00 a 06:00 en mm
DESCASC
Precipitaciones de 06:00 a 12:00 en mm
DESCASC
Precipitaciones de 12:00 a 18:00 en mm
DESCASC
Precipitaciones de 18:00 a 24:00 en mm
DESCASC
24-09-2020 16.8 (17:20) 9.8 (23:50) 13.3 14.17 (13:30) 8.33 (16:40) 0 0 0 0 0
23-09-2020 20.5 (15:30) 11 (00:00) 15.8 11.11 (16:30) 5.56 (16:30) 0 0 0 0 0
22-09-2020 22 (19:10) 9.7 (00:00) 15.8 5.56 (14:50) 3.33 (14:30) 0 0 0 0 0
21-09-2020 22.9 (13:20) 11.6 (00:00) 17.3 8.61 (18:30) 4.44 (20:20) 19 0 0 7.6 11.4
20-09-2020 20.8 (17:50) 10.9 (00:00) 15.8 4.44 (15:40) 3.33 (16:10) 11.4 0 1.4 3.2 6.8
19-09-2020 20.5 (17:00) 11.5 (00:00) 16 7.5 (16:00) 4.17 (16:00) 0.2 0.2 0 0 0
18-09-2020 23 (17:20) 12.8 (00:00) 17.9 12.5 (13:10) 8.61 (12:30) 5.8 0 0.4 0.2 5.2
17-09-2020 24.2 (16:30) 14.6 (00:00) 19.4 11.11 (20:00) 6.39 (20:10) 10.2 1 0.8 0 8.4
16-09-2020 26.4 (15:40) 9.4 (00:00) 17.9 7.5 (14:00) 4.17 (23:20) 0 0 0 0 0
15-09-2020 26.2 (17:30) 13.1 (00:00) 19.7 9.72 (16:00) 6.39 (16:00) 0.2 0 0.2 0 0
14-09-2020 26.5 (16:00) 13.2 (00:00) 19.8 8.61 (16:10) 5 (16:10) 3 0 0.2 1.6 1.2
13-09-2020 31.5 (17:40) 11.1 (00:00) 21.3 8.06 (17:00) 5 (18:30) 0 0 0 0 0
12-09-2020 30.5 (17:50) 10.8 (00:00) 20.7 6.39 (14:30) 3.89 (14:30) 0 0 0 0 0
11-09-2020 29.8 (17:30) 9.9 (00:00) 19.8 7.22 (15:20) 3.89 (19:00) 0 0 0 0 0
10-09-2020 28.8 (16:50) 8.6 (00:00) 18.7 6.39 (17:30) 3.89 (19:10) 0 0 0 0 0
09-09-2020 29.1 (17:30) 7.6 (00:00) 18.4 6.39 (18:30) 3.89 (18:40) 0 0 0 0 0
08-09-2020 26.2 (18:40) 6.5 (00:00) 16.4 7.78 (12:00) 3.89 (15:10) 0 0 0 0 0
07-09-2020 23.5 (17:50) 5.9 (07:50) 14.7 7.22 (15:10) 3.89 (15:10) 0 0 0 0 0
06-09-2020 27.3 (17:30) 11.9 (00:00) 19.6 7.5 (21:10) 3.61 (16:40) 0 0 0 0 0
05-09-2020 31.1 (17:20) 12.3 (00:00) 21.7 6.11 (15:40) 3.61 (15:40) 0 0 0 0 0
04-09-2020 32.6 (17:30) 9.9 (00:00) 21.2 12.22 (17:00) 5.28 (16:40) 0 0 0 0 0
03-09-2020 29.7 (18:10) 8.5 (00:00) 19.1 7.22 (17:30) 4.72 (15:50) 0 0 0 0 0
02-09-2020 27.2 (17:20) 8.5 (00:00) 17.9 6.11 (12:40) 3.89 (19:10) 0 0 0 0 0
01-09-2020 26.9 (16:20) 10 (00:00) 18.4 6.39 (20:50) 4.72 (21:00) 0 0 0 0 0
31-08-2020 22.3 (17:00) 2.4 (00:00) 12.3 5.83 (15:30) 3.33 (15:30) 0 0 0 0 0
30-08-2020 21.6 (17:30) 5.3 (00:00) 13.5 7.5 (16:40) 3.89 (11:10) 0 0 0 0 0
29-08-2020 19.6 (17:30) 8.6 (00:00) 14.1 12.78 (17:50) 7.5 (17:40) 0 0 0 0 0
28-08-2020 21.4 (15:20) 11.5 (00:00) 16.4 11.67 (16:20) 6.39 (18:00) 0 0 0 0 0

Gráficas

Temp. máximas Temp. mínimas Temp. medias Precipitaciones Rachas de viento máximas Velocidades máximas media en intervalos de 10 minutos

Datos horarios

Fecha y hora oficial Temperatura (ºC) Velocidad del viento (km/h) Dirección del viento Racha (km/h) Dirección de racha Precipitación (mm) Presión (hPa) Tendencia (hPa) Humedad (%)
2020-09-26 23:00:00 13.2 13 Noroeste 38 Noroeste 0 -- -- 83
2020-09-26 22:00:00 13.3 15 Oeste 40 Noroeste 0 -- -- 81
2020-09-26 21:00:00 13 12 Oeste 30 Oeste 0 -- -- 82
2020-09-26 20:00:00 13.4 13 Oeste 35 Noroeste 0 -- -- 79
2020-09-26 19:00:00 13.9 10 Oeste 32 Oeste 0 -- -- 76
2020-09-26 18:00:00 14 18 Oeste 37 Oeste 0 -- -- 74
2020-09-26 17:00:00 16.5 21 Noroeste 44 Oeste 0 -- -- 65
2020-09-26 16:00:00 16.1 27 Noroeste 51 Oeste 0 -- -- 65
2020-09-26 15:00:00 16.2 26 Noroeste 54 Noroeste 0 -- -- 62
2020-09-26 14:00:00 15.8 22 Noroeste 38 Noroeste 0 -- -- 62
2020-09-26 13:00:00 15.2 22 Noroeste 39 Noroeste 0 -- -- 63
2020-09-26 12:00:00 12.2 21 Noroeste 42 Noroeste 0 -- -- 69
2020-09-26 11:00:00 11.8 13 Noroeste 26 Noroeste 0 -- -- 72
2020-09-26 10:00:00 11.2 5 Norte 12 Norte 0 -- -- 73
2020-09-26 09:00:00 8.9 8 Noroeste 24 Noroeste 0 -- -- 81
2020-09-26 08:00:00 8.5 11 Noroeste 28 Oeste 0 -- -- 80
2020-09-26 07:00:00 8.5 8 Noroeste 23 Oeste 0 -- -- 79
2020-09-26 06:00:00 8.4 8 Noroeste 17 Noroeste 0 -- -- 80
2020-09-26 05:00:00 7.7 5 Sudoeste 17 Oeste 0 -- -- 82
2020-09-26 04:00:00 8.4 6 Oeste 17 Noroeste 0 -- -- 78
2020-09-26 03:00:00 8.1 11 Noroeste 23 Noroeste 0 -- -- 78
2020-09-26 02:00:00 7.2 11 Noroeste 23 Noroeste 0 -- -- 80
2020-09-26 01:00:00 7.3 12 Noroeste 24 Oeste 0 -- -- 81
2020-09-26 00:00:00 7.8 11 Noroeste 23 Oeste 0 -- -- 76
2020-09-25 23:00:00 8.2 12 Oeste 23 Oeste 0 -- -- 74
2020-09-25 22:00:00 8.6 12 Noroeste 23 Oeste 0 -- -- 69
2020-09-25 21:00:00 9.2 12 Noroeste 25 Noroeste 0 -- -- 71
2020-09-25 20:00:00 10.3 10 Noroeste 31 Noroeste 0 -- -- 67
2020-09-25 19:00:00 11.8 17 Noroeste 39 Noroeste 0 -- -- 58
2020-09-25 18:00:00 13.9 20 Noroeste 44 Oeste 0 -- -- 55
2020-09-25 17:00:00 14.3 21 Noroeste 40 Noroeste 0 -- -- 54
2020-09-25 16:00:00 15 18 Noroeste 41 Oeste 0 -- -- 54
2020-09-25 15:00:00 13.5 22 Noroeste 42 Oeste 0 -- -- 60
2020-09-25 14:00:00 13.9 18 Noroeste 46 Noroeste 0 -- -- 57
2020-09-25 13:00:00 12.9 18 Oeste 37 Oeste 0 -- -- 63
2020-09-25 12:00:00 12.4 21 Oeste 40 Oeste 0 -- -- 61
2020-09-25 11:00:00 12.1 18 Noroeste 42 Noroeste 0 -- -- 58
2020-09-25 10:00:00 10.3 19 Noroeste 38 Noroeste 0 -- -- 64
2020-09-25 09:00:00 8 18 Noroeste 41 Noroeste 0 -- -- 73
2020-09-25 08:00:00 7 17 Oeste 39 Norte 0 -- -- 76
2020-09-25 07:00:00 7 18 Noroeste 34 Noroeste 0 -- -- 76
2020-09-25 06:00:00 7 18 Noroeste 40 Noroeste 0 -- -- 78
2020-09-25 05:00:00 7.3 12 Oeste 40 Noroeste 0 -- -- 77
2020-09-25 04:00:00 7.7 16 Noroeste 39 Noroeste 0 -- -- 74
2020-09-25 03:00:00 7.8 14 Noroeste 28 Noroeste 0 -- -- 72
2020-09-25 02:00:00 8.6 10 Oeste 30 Oeste 0 -- -- 75
2020-09-25 01:00:00 9.4 13 Noroeste 34 Noroeste 0 -- -- 76
2020-09-25 00:00:00 9.8 13 Oeste 31 Oeste 0 -- -- 81
2020-09-24 23:00:00 10.8 15 Oeste 37 Oeste 0 -- -- 77
2020-09-24 22:00:00 11 18 Oeste 31 Oeste 0 -- -- 78
2020-09-24 21:00:00 11 13 Oeste 39 Oeste 0 -- -- 76
2020-09-24 20:00:00 11.9 17 Oeste 49 Oeste 0 -- -- 70
2020-09-24 19:00:00 12.8 23 Oeste 43 Oeste 0 -- -- 70
2020-09-24 18:00:00 15.2 21 Oeste 44 Oeste 0 -- -- 62
2020-09-24 17:00:00 16.4 21 Oeste 48 Oeste 0 -- -- 57
2020-09-24 16:00:00 15.5 20 Oeste 44 Oeste 0 -- -- 58
2020-09-24 15:00:00 15.2 21 Oeste 38 Oeste 0 -- -- 54
2020-09-24 14:00:00 14.8 19 Oeste 51 Sudoeste 0 -- -- 52
2020-09-24 13:00:00 16 19 Noroeste 42 Oeste 0 -- -- 56
2020-09-24 12:00:00 14.6 15 Noroeste 32 Noroeste 0 -- -- 65
2020-09-24 11:00:00 14.5 18 Oeste 35 Oeste 0 -- -- 63
2020-09-24 10:00:00 12.9 10 Oeste 26 Oeste 0 -- -- 74
2020-09-24 09:00:00 11 7 Oeste 15 Oeste 0 -- -- 84
2020-09-24 08:00:00 10.9 8 Noroeste 17 Oeste 0 -- -- 84
2020-09-24 07:00:00 10.5 7 Oeste 15 Oeste 0 -- -- 87
2020-09-24 06:00:00 10.9 9 Noroeste 18 Oeste 0 -- -- 85
2020-09-24 05:00:00 10.7 9 Noroeste 15 Oeste 0 -- -- 86
2020-09-24 04:00:00 11.2 7 Noroeste 19 Oeste 0 -- -- 84
2020-09-24 03:00:00 11.7 9 Noroeste 27 Norte 0 -- -- 82
2020-09-24 02:00:00 12.2 15 Noroeste 26 Noroeste 0 -- -- 81
2020-09-24 01:00:00 12.8 9 Noroeste 17 Noroeste 0 -- -- 82
2020-09-24 00:00:00 12.9 7 Noroeste 14 Noroeste 0 -- -- 82
2020-09-23 23:00:00 13.7 8 Noroeste 22 Noroeste 0 -- -- 78
2020-09-23 22:00:00 14.5 13 Oeste 27 Noroeste 0 -- -- 75
2020-09-23 21:00:00 14.8 18 Noroeste 35 Oeste 0 -- -- 75
2020-09-23 20:00:00 15.9 14 Noroeste 24 Oeste 0 -- -- 73
2020-09-23 19:00:00 17.9 10 Noroeste 25 Oeste 0 -- -- 66
2020-09-23 18:00:00 19.9 18 Oeste 37 Oeste 0 -- -- 56
2020-09-23 17:00:00 19.2 14 Noroeste 40 Noroeste 0 -- -- 61
2020-09-23 16:00:00 18.1 15 Noroeste 34 Noroeste 0 -- -- 68
2020-09-23 15:00:00 19.6 14 Noroeste 30 Noroeste 0 -- -- 63
2020-09-23 14:00:00 20 10 Norte 22 Norte 0 -- -- 65
2020-09-23 13:00:00 18.9 3 Sudeste 12 Sudeste 0 -- -- 68
2020-09-23 12:00:00 18.7 6 Sur 13 Sur 0 -- -- 71
2020-09-23 11:00:00 17 4 Este 10 Sudeste 0 -- -- 75
2020-09-23 10:00:00 17.3 3 Este 6 Norte 0 -- -- 74
2020-09-23 09:00:00 12.7 3 Norte 12 Noroeste 0 -- -- 96
2020-09-23 08:00:00 11.2 7 Noroeste 10 Noroeste 0 -- -- 97
2020-09-23 07:00:00 11.2 2 Sudeste 6 Norte 0 -- -- 96
2020-09-23 06:00:00 11.3 5 Norte 8 Norte 0 -- -- 95
2020-09-23 05:00:00 11.4 5 Norte 7 Norte 0 -- -- 96
2020-09-23 04:00:00 12 3 Sur 6 Nordeste -- -- -- 94
2020-09-23 03:00:00 12.8 0 Calma 8 Norte 0 -- -- 91
2020-09-23 02:00:00 12.9 2 Norte 7 Sudoeste 0 -- -- 90
2020-09-23 01:00:00 13 3 Nordeste 9 Noroeste 0 -- -- 88
2020-09-23 00:00:00 13.3 5 Norte 13 Noroeste 0 -- -- 86
2020-09-22 23:00:00 14.6 12 Noroeste 18 Norte 0 -- -- 78
2020-09-22 22:00:00 15.4 10 Noroeste 19 Noroeste 0 -- -- 70
2020-09-22 21:00:00 16.2 10 Noroeste 17 Noroeste 0 -- -- 63
2020-09-22 20:00:00 17.6 10 Noroeste 18 Noroeste 0 -- -- 60
2020-09-22 19:00:00 21.9 8 Norte 18 Oeste 0 -- -- 51
2020-09-22 18:00:00 19.7 5 Este 13 Este 0 -- -- 57
2020-09-22 17:00:00 20.8 5 Este 12 Norte 0 -- -- 51
2020-09-22 16:00:00 21.3 6 Sudeste 14 Este 0 -- -- 51
2020-09-22 15:00:00 20 8 Sur 20 Sur 0 -- -- 54
2020-09-22 14:00:00 18.1 6 Sudeste 13 Sudeste 0 -- -- 65
2020-09-22 13:00:00 17.5 8 Sudeste 13 Sur 0 -- -- 68
2020-09-22 12:00:00 19.2 4 Sur 10 Sudoeste 0 -- -- 62
2020-09-22 11:00:00 17.7 2 Sur 6 Norte 0 -- -- 73
2020-09-22 10:00:00 15 4 Norte 8 Nordeste 0 -- -- 81
2020-09-22 09:00:00 11.1 2 Sur 6 Norte 0 -- -- 97
2020-09-22 08:00:00 10.8 4 Norte 5 Nordeste 0 -- -- 97
2020-09-22 07:00:00 10.6 0 Calma 5 Sudeste 0 -- -- 97
2020-09-22 06:00:00 10.4 4 Norte 11 Norte 0 -- -- 97
2020-09-22 05:00:00 10.4 5 Nordeste 9 Norte 0 -- -- 96
2020-09-22 04:00:00 10.7 3 Norte 8 Oeste 0 -- -- 97
2020-09-22 03:00:00 11.6 3 Norte 9 Norte 0 -- -- 97
2020-09-22 02:00:00 11.2 0 Calma 5 Nordeste 0 -- -- 96
2020-09-22 01:00:00 11.4 2 Noroeste 10 Noroeste 0 -- -- 95
2020-09-22 00:00:00 11.6 5 Norte 16 Norte 0 -- -- 95
2020-09-21 23:00:00 12.2 11 Norte 18 Norte 0 -- -- 94
2020-09-21 22:00:00 12.4 12 Norte 19 Norte 0.2 -- -- 96
2020-09-21 21:00:00 12.5 11 Norte 22 Norte 2.2 -- -- 95
2020-09-21 20:00:00 13.4 15 Norte 21 Norte 2.8 -- -- 94
2020-09-21 19:00:00 14.3 9 Norte 31 Oeste 6.2 -- -- 91
2020-09-21 18:00:00 15.5 12 Nordeste 18 Nordeste 6.4 -- -- 89
2020-09-21 17:00:00 18.2 5 Este 15 Este 1.2 -- -- 76
2020-09-21 16:00:00 20.9 4 Sudeste 17 Sur 0 -- -- 57
2020-09-21 15:00:00 20.7 5 Sur 12 Nordeste 0 -- -- 57
2020-09-21 14:00:00 21 6 Este 13 Sudeste 0 -- -- 62
2020-09-21 13:00:00 20.8 4 Sudeste 10 Este 0 -- -- 62
2020-09-21 12:00:00 18.4 5 Norte 10 Norte 0 -- -- 71
2020-09-21 11:00:00 18 3 Este 6 Sudeste 0 -- -- 74
2020-09-21 10:00:00 14.7 0 Calma 5 Sur 0 -- -- 94
2020-09-21 09:00:00 12.7 0 Calma 4 Nordeste 0 -- -- 97
2020-09-21 08:00:00 12.2 3 Sudoeste 5 Sudoeste 0 -- -- 97
2020-09-21 07:00:00 12.2 0 Calma 5 Norte 0 -- -- 97
2020-09-21 06:00:00 12.4 4 Noroeste 9 Norte 0 -- -- 97
2020-09-21 05:00:00 12 5 Nordeste 7 Norte 0 -- -- 98
2020-09-21 04:00:00 12 6 Norte 7 Norte 0 -- -- 97
2020-09-21 03:00:00 12.9 0 Calma 6 Norte 0 -- -- 96
2020-09-21 02:00:00 13.3 5 Norte 8 Norte 0 -- -- 94
2020-09-21 01:00:00 13.5 2 Sur 10 Noroeste 0 -- -- 95
2020-09-21 00:00:00 13.8 5 Noroeste 13 Oeste 0.4 -- -- 96
2020-09-20 23:00:00 13.9 3 Sur 8 Sur 6.4 -- -- 95
2020-09-20 22:00:00 14.8 3 Oeste 12 Sur 0 -- -- 90
2020-09-20 21:00:00 15.3 9 Sur 16 Sur 0 -- -- 86
2020-09-20 20:00:00 17.1 4 Este 8 Este 0 -- -- 77
2020-09-20 19:00:00 18 4 Sudeste 13 Este 0 -- -- 71
2020-09-20 18:00:00 20.5 5 Este 15 Nordeste 0 -- -- 63
2020-09-20 17:00:00 18.8 8 Norte 16 Norte 0 -- -- 72
2020-09-20 16:00:00 18.3 11 Norte 16 Nordeste 0.2 -- -- 76
2020-09-20 15:00:00 17.2 6 Norte 12 Norte 0.8 -- -- 86
2020-09-20 14:00:00 15.1 5 Norte 7 Norte 1.8 -- -- 93
2020-09-20 13:00:00 15 0 Calma 5 Norte 0.4 -- -- 89
2020-09-20 12:00:00 14.2 3 Sudoeste 6 Sur 0.2 -- -- 92
2020-09-20 11:00:00 14.1 4 Nordeste 8 Nordeste 0 -- -- 93
2020-09-20 10:00:00 13.2 4 Norte 10 Nordeste 0 -- -- 97
2020-09-20 09:00:00 12.6 8 Norte 12 Norte 0.2 -- -- 98
2020-09-20 08:00:00 12.5 6 Norte 12 Nordeste 1 -- -- 98
2020-09-20 07:00:00 12.4 10 Nordeste 13 Norte 0 -- -- 97
2020-09-20 06:00:00 12.4 9 Norte 12 Norte 0 -- -- 97
2020-09-20 05:00:00 12.2 9 Norte 12 Norte 0 -- -- 95
2020-09-20 04:00:00 11.9 3 Norte 8 Nordeste -- -- -- 93
2020-09-20 03:00:00 11.7 7 Norte 10 Norte 0 -- -- 92
2020-09-20 02:00:00 10.9 8 Norte 9 Norte 0 -- -- 93
2020-09-20 01:00:00 12.8 0 Calma 9 Norte 0 -- -- 91
2020-09-20 00:00:00 13.1 4 Norte 6 Norte 0 -- -- 89
2020-09-19 23:00:00 13.4 3 Nordeste 10 Norte 0 -- -- 87
2020-09-19 22:00:00 14.4 5 Nordeste 8 Oeste 0 -- -- 85
2020-09-19 21:00:00 16.5 4 Noroeste 9 Oeste 0 -- -- 73
2020-09-19 20:00:00 17.4 6 Oeste 12 Oeste 0 -- -- 67
2020-09-19 19:00:00 18.9 7 Noroeste 15 Oeste 0 -- -- 59
2020-09-19 18:00:00 18.4 13 Oeste 21 Sudoeste 0 -- -- 62
2020-09-19 17:00:00 20.5 10 Noroeste 22 Oeste 0 -- -- 54
2020-09-19 16:00:00 19.1 15 Oeste 27 Oeste 0 -- -- 60
2020-09-19 15:00:00 20 7 Sudoeste 24 Oeste 0 -- -- 54
2020-09-19 14:00:00 19.1 9 Sudoeste 23 Oeste 0 -- -- 60
2020-09-19 13:00:00 19.1 8 Sudoeste 17 Sur 0 -- -- 64
2020-09-19 12:00:00 17.5 4 Oeste 10 Norte 0 -- -- 71
2020-09-19 11:00:00 17.4 6 Oeste 11 Oeste 0 -- -- 71
2020-09-19 10:00:00 14.4 7 Norte 10 Norte 0 -- -- 85
2020-09-19 09:00:00 12.1 0 Calma 6 Noroeste 0 -- -- 94
2020-09-19 08:00:00 11.9 5 Noroeste 8 Norte 0 -- -- 97
2020-09-19 07:00:00 12 7 Norte 12 Norte 0 -- -- 97
2020-09-19 06:00:00 11.8 8 Nordeste 16 Norte 0 -- -- 97
2020-09-19 05:00:00 11.6 5 Nordeste 11 Sudeste 0 -- -- 96
2020-09-19 04:00:00 12.1 5 Este 11 Este 0 -- -- 96
2020-09-19 03:00:00 12.6 5 Nordeste 12 Este 0 -- -- 97
2020-09-19 02:00:00 12.9 4 Este 10 Este 0 -- -- 97
2020-09-19 01:00:00 13 5 Este 13 Este 0.2 -- -- 97
2020-09-19 00:00:00 12.9 3 Este 12 Norte 0 -- -- 97
2020-09-18 23:00:00 12.9 9 Norte 12 Norte 0 -- -- 97
2020-09-18 22:00:00 13.1 7 Nordeste 13 Sudoeste 0.4 -- -- 95
2020-09-18 21:00:00 13.4 10 Sur 23 Sur 0.2 -- -- 94
2020-09-18 20:00:00 12.9 13 Norte 40 Sur 4.6 -- -- 95
2020-09-18 19:00:00 18 8 Este 33 Sudeste 0 -- -- 64
2020-09-18 18:00:00 20.7 12 Sur 26 Sudoeste 0 -- -- 46
2020-09-18 17:00:00 22.5 22 Sur 39 Sur 0 -- -- 44
2020-09-18 16:00:00 21.5 17 Sur 33 Sur 0 -- -- 49
2020-09-18 15:00:00 20 25 Sur 38 Sur 0 -- -- 53
2020-09-18 14:00:00 20.4 19 Sur 45 Sur 0 -- -- 52
2020-09-18 13:00:00 18.4 23 Sur 42 Sur 0.2 -- -- 63
2020-09-18 12:00:00 16.9 22 Sur 31 Sur 0 -- -- 73
2020-09-18 11:00:00 16.2 14 Sur 25 Sur 0 -- -- 84
2020-09-18 10:00:00 15.1 14 Sur 22 Sur 0 -- -- 94
2020-09-18 09:00:00 13.8 15 Sur 22 Sur 0.4 -- -- 97
2020-09-18 08:00:00 13.9 6 Sudeste 10 Sudeste 0 -- -- 96
2020-09-18 07:00:00 13.8 3 Este 10 Sudeste 0 -- -- 97
2020-09-18 06:00:00 13.6 4 Sudeste 11 Sudeste 0 -- -- 98
2020-09-18 05:00:00 14.2 4 Sudeste 9 Sur 0 -- -- 98
2020-09-18 04:00:00 13.9 5 Sudeste 9 Sudeste 0 -- -- 98
2020-09-18 03:00:00 14 3 Sudeste 7 Sudeste 0 -- -- 97
2020-09-18 02:00:00 14.4 0 Calma 5 Sudeste 0 -- -- 96
2020-09-18 01:00:00 15 3 Norte 12 Norte 0 -- -- 95
2020-09-18 00:00:00 15 10 Norte 20 Norte 0.2 -- -- 95
2020-09-17 23:00:00 15.4 13 Norte 19 Norte 0.2 -- -- 94
2020-09-17 22:00:00 15 12 Norte 17 Nordeste 0 -- -- 94
2020-09-17 21:00:00 15.1 7 Norte 40 Sudoeste 7.8 -- -- 93
2020-09-17 20:00:00 18.8 21 Oeste 40 Oeste 0.2 -- -- 70
2020-09-17 19:00:00 21.9 8 Este 22 Este 0 -- -- 57
2020-09-17 18:00:00 23.7 12 Este 24 Este 0 -- -- 53
2020-09-17 17:00:00 23.2 12 Este 26 Sudeste 0 -- -- 56
2020-09-17 16:00:00 23.7 12 Este 24 Sudeste 0 -- -- 57
2020-09-17 15:00:00 22.8 12 Este 24 Este 0 -- -- 62
2020-09-17 14:00:00 18.9 8 Sudeste 20 Sudeste 0 -- -- 75
2020-09-17 13:00:00 18.2 15 Sudeste 21 Sudeste 0 -- -- 77
2020-09-17 12:00:00 18.5 14 Sur 23 Sur 0 -- -- 75
2020-09-17 11:00:00 17 6 Sudoeste 13 Sudoeste 0 -- -- 81
2020-09-17 10:00:00 16.4 4 Oeste 13 Oeste 0.2 -- -- 82
2020-09-17 09:00:00 15 5 Sudoeste 12 Norte 0.2 -- -- 91
2020-09-17 08:00:00 14.7 9 Norte 13 Norte 0.4 -- -- 92
2020-09-17 07:00:00 15.2 8 Nordeste 21 Norte 0 -- -- 89
2020-09-17 06:00:00 15.2 17 Norte 24 Sur 0.8 -- -- 87
2020-09-17 05:00:00 17.3 15 Sudeste 27 Sur 0.2 -- -- 75
2020-09-17 04:00:00 19.4 8 Sudeste 19 Este 0 -- -- 60
2020-09-17 03:00:00 19.6 3 Sudeste 14 Nordeste 0 -- -- 53
2020-09-17 02:00:00 19.6 6 Norte 23 Norte 0 -- -- 54
2020-09-17 01:00:00 19.2 5 Norte 18 Norte 0 -- -- 51
2020-09-17 00:00:00 18.7 13 Norte 19 Norte 0 -- -- 53
2020-09-16 23:00:00 19.4 14 Norte 18 Norte 0 -- -- 53
2020-09-16 22:00:00 19.6 12 Norte 15 Norte 0 -- -- 55
2020-09-16 21:00:00 20.4 9 Norte 11 Norte 0 -- -- 52
2020-09-16 20:00:00 23.1 3 Norte 5 Norte 0 -- -- 45
2020-09-16 19:00:00 24.2 0 Calma 18 Sudeste 0 -- -- 41
2020-09-16 18:00:00 25.2 9 Sudeste 23 Sudeste 0 -- -- 39
2020-09-16 17:00:00 26 13 Sudeste 25 Sur 0 -- -- 39
2020-09-16 16:00:00 25.7 12 Sudeste 26 Sudeste 0 -- -- 39
2020-09-16 15:00:00 26.1 11 Este 27 Sudeste 0 -- -- 38
2020-09-16 14:00:00 25.1 14 Sur 27 Sudeste 0 -- -- 40
2020-09-16 13:00:00 24.3 12 Sur 21 Sudeste 0 -- -- 42
2020-09-16 12:00:00 22.2 7 Sur 11 Sur 0 -- -- 51
2020-09-16 11:00:00 21.2 3 Este 9 Nordeste 0 -- -- 53
2020-09-16 10:00:00 16.9 3 Norte 7 Norte 0 -- -- 68
2020-09-16 09:00:00 10.7 4 Norte 5 Norte 0 -- -- 86
2020-09-16 08:00:00 9.9 3 Oeste 6 Nordeste 0 -- -- 89
2020-09-16 07:00:00 9.5 3 Oeste 7 Norte 0 -- -- 88
2020-09-16 06:00:00 10.8 3 Noroeste 5 Norte 0 -- -- 82
2020-09-16 05:00:00 10.9 3 Oeste 6 Noroeste 0 -- -- 83
2020-09-16 04:00:00 10.9 0 Calma 9 Norte 0 -- -- 83
2020-09-16 03:00:00 10.3 7 Norte 9 Norte 0 -- -- 85
2020-09-16 02:00:00 13.5 2 Noroeste 10 Norte 0 -- -- 71
2020-09-16 01:00:00 14.5 7 Norte 12 Norte 0 -- -- 68
2020-09-16 00:00:00 13.2 11 Norte 14 Norte 0 -- -- 73
2020-09-15 23:00:00 16.4 6 Norte 9 Noroeste 0 -- -- 60
2020-09-15 22:00:00 19.6 9 Oeste 16 Oeste 0 -- -- 48
2020-09-15 21:00:00 20.2 10 Oeste 20 Sudoeste 0 -- -- 47
2020-09-15 20:00:00 22.1 12 Sudoeste 29 Sudoeste 0 -- -- 40
2020-09-15 19:00:00 25.1 17 Sudoeste 31 Sudoeste 0 -- -- 35
2020-09-15 18:00:00 25.6 19 Sudoeste 34 Sur 0 -- -- 38
2020-09-15 17:00:00 25.3 21 Sur 33 Sur 0 -- -- 41
2020-09-15 16:00:00 24.1 23 Sur 35 Sur 0 -- -- 44
2020-09-15 15:00:00 24.4 10 Sudeste 23 Sudeste 0 -- -- 53
2020-09-15 14:00:00 22.8 14 Sur 28 Sudeste 0 -- -- 56
2020-09-15 13:00:00 22 9 Sur 24 Sudoeste 0 -- -- 58
2020-09-15 12:00:00 21.2 4 Sur 13 Oeste 0.2 -- -- 67
2020-09-15 11:00:00 17.8 4 Sur 8 Nordeste 0 -- -- 78
2020-09-15 10:00:00 15.2 6 Norte 8 Norte 0 -- -- 87
2020-09-15 09:00:00 14.7 6 Nordeste 8 Nordeste 0 -- -- 90
2020-09-15 08:00:00 14 5 Norte 6 Norte 0 -- -- 92
2020-09-15 07:00:00 13.5 6 Norte 10 Norte 0 -- -- 93
2020-09-15 06:00:00 14.3 9 Norte 13 Norte 0 -- -- 91
2020-09-15 05:00:00 13.8 8 Norte 14 Norte 0 -- -- 92
2020-09-15 04:00:00 13.8 8 Norte 13 Nordeste 0 -- -- 92
2020-09-15 03:00:00 14.6 8 Norte 14 Nordeste 0 -- -- 89
2020-09-15 02:00:00 15.2 6 Norte 8 Norte 0 -- -- 85
2020-09-15 01:00:00 14.9 6 Norte 19 Norte 0 -- -- 88
2020-09-15 00:00:00 13.7 10 Norte 14 Norte 0 -- -- 92
2020-09-14 23:00:00 14.3 6 Norte 12 Norte 0 -- -- 94
2020-09-14 22:00:00 15.2 0 Calma 12 Noroeste 0 -- -- 93
2020-09-14 21:00:00 16.9 6 Noroeste 13 Norte 0 -- -- 84
2020-09-14 20:00:00 17.6 13 Norte 18 Norte 0 -- -- 85
2020-09-14 19:00:00 17.8 14 Norte 20 Norte 1.2 -- -- 89
2020-09-14 18:00:00 19.6 13 Noroeste 31 Oeste 1.4 -- -- 77
2020-09-14 17:00:00 25.3 15 Sudeste 31 Sudeste 0 -- -- 46
2020-09-14 16:00:00 26.5 12 Sudeste 27 Sudeste 0 -- -- 45
2020-09-14 15:00:00 25 12 Sudeste 21 Sudeste 0.2 -- -- 49
2020-09-14 14:00:00 21.4 7 Sudeste 12 Sur 0 -- -- 59
2020-09-14 13:00:00 20.4 5 Sudoeste 15 Nordeste 0 -- -- 62
2020-09-14 12:00:00 17.3 10 Nordeste 17 Nordeste 0.2 -- -- 78
2020-09-14 11:00:00 19.1 3 Sudoeste 11 Norte 0 -- -- 58
2020-09-14 10:00:00 19 8 Norte 10 Norte 0 -- -- 55
2020-09-14 09:00:00 16.6 5 Norte 12 Norte 0 -- -- 61
2020-09-14 08:00:00 15.3 7 Norte 12 Norte 0 -- -- 62
2020-09-14 07:00:00 15.3 6 Norte 15 Norte 0 -- -- 61
2020-09-14 06:00:00 13.4 7 Norte 12 Nordeste 0 -- -- 70
2020-09-14 05:00:00 17.9 4 Norte 6 Oeste 0 -- -- 53
2020-09-14 04:00:00 16.4 2 Sur 5 Norte 0 -- -- 59
2020-09-14 03:00:00 17.2 0 Calma 9 Norte 0 -- -- 56
2020-09-14 02:00:00 18.1 5 Norte 10 Norte 0 -- -- 53
2020-09-14 01:00:00 19.7 8 Norte 10 Norte 0 -- -- 49
2020-09-14 00:00:00 20.1 9 Norte 11 Norte 0 -- -- 48
2020-09-13 23:00:00 21.7 8 Norte 25 Sur 0 -- -- 44
2020-09-13 22:00:00 23.5 7 Norte 12 Este 0 -- -- 40
2020-09-13 21:00:00 25.1 8 Este 15 Sudeste 0 -- -- 37
2020-09-13 20:00:00 26.8 11 Sudeste 22 Sudeste 0 -- -- 36
2020-09-13 19:00:00 30 17 Sudeste 27 Sur 0 -- -- 30
2020-09-13 18:00:00 29.9 15 Sudeste 26 Sudeste 0 -- -- 29
2020-09-13 17:00:00 30 18 Sudeste 29 Sudeste 0 -- -- 31
2020-09-13 16:00:00 30.4 12 Sudeste 23 Sur 0 -- -- 29
2020-09-13 15:00:00 30.1 12 Sudeste 22 Sur 0 -- -- 25
2020-09-13 14:00:00 29.6 7 Sudeste 18 Sudeste 0 -- -- 28
2020-09-13 13:00:00 28.5 6 Este 15 Este 0 -- -- 28
2020-09-13 12:00:00 27.2 6 Norte 14 Norte 0 -- -- 29
2020-09-13 11:00:00 26 2 Sudeste 7 Nordeste 0 -- -- 28
2020-09-13 10:00:00 21.7 0 Calma 6 Norte 0 -- -- 40
2020-09-13 09:00:00 12.8 4 Norte 7 Nordeste 0 -- -- 60
2020-09-13 08:00:00 11.8 0 Calma 7 Noroeste 0 -- -- 63
2020-09-13 07:00:00 12.9 3 Noroeste 11 Noroeste 0 -- -- 59
2020-09-13 06:00:00 11.1 9 Norte 10 Norte 0 -- -- 70
2020-09-13 05:00:00 12 6 Noroeste 11 Noroeste 0 -- -- 67
2020-09-13 04:00:00 14.9 8 Noroeste 11 Noroeste 0 -- -- 56
2020-09-13 03:00:00 16 4 Noroeste 12 Noroeste 0 -- -- 53
2020-09-13 02:00:00 17.1 6 Noroeste 11 Norte 0 -- -- 49
2020-09-13 01:00:00 16.8 9 Norte 14 Este 0 -- -- 48
2020-09-13 00:00:00 17.3 9 Norte 11 Norte 0 -- -- 47
2020-09-12 23:00:00 20.2 6 Norte 9 Norte 0 -- -- 40
2020-09-12 22:00:00 21.8 4 Norte 7 Este 0 -- -- 37
2020-09-12 21:00:00 23.9 5 Sudeste 13 Este 0 -- -- 34
2020-09-12 20:00:00 27.7 5 Sudeste 16 Este 0 -- -- 29
2020-09-12 19:00:00 29.1 8 Sudeste 22 Sudeste 0 -- -- 28
2020-09-12 18:00:00 30.3 8 Sudeste 20 Sudeste 0 -- -- 26
2020-09-12 17:00:00 28.4 8 Sudeste 21 Sudeste 0 -- -- 27
2020-09-12 16:00:00 29.4 8 Sudeste 19 Sudeste 0 -- -- 23
2020-09-12 15:00:00 27.7 11 Sudeste 23 Sudeste 0 -- -- 25
2020-09-12 14:00:00 27.2 11 Sudeste 21 Sudeste 0 -- -- 25
2020-09-12 13:00:00 26.5 8 Sudeste 19 Sudeste 0 -- -- 32
2020-09-12 12:00:00 24.4 8 Sudeste 15 Sudeste 0 -- -- 39
2020-09-12 11:00:00 22.9 5 Sur 10 Sur 0 -- -- 49
2020-09-12 10:00:00 20.7 3 Norte 8 Norte 0 -- -- 60
2020-09-12 09:00:00 12.9 8 Norte 10 Norte 0 -- -- 83
2020-09-12 08:00:00 10.9 0 Calma 8 Norte 0 -- -- 92
2020-09-12 07:00:00 11.6 7 Norte 12 Norte 0 -- -- 87
2020-09-12 06:00:00 12.2 3 Norte 5 Norte 0 -- -- 82
2020-09-12 05:00:00 13.7 3 Norte 8 Oeste 0 -- -- 75
2020-09-12 04:00:00 16.3 3 Sudoeste 6 Oeste 0 -- -- 65
2020-09-12 03:00:00 17.6 0 Calma 9 Norte 0 -- -- 61
2020-09-12 02:00:00 17.6 8 Norte 11 Norte 0 -- -- 59
2020-09-12 01:00:00 18 5 Norte 7 Norte 0 -- -- 60
2020-09-12 00:00:00 18.4 0 Calma 15 Norte 0 -- -- 59
2020-09-11 23:00:00 19.6 13 Norte 17 Norte 0 -- -- 55
2020-09-11 22:00:00 20.3 12 Norte 15 Norte 0 -- -- 47
2020-09-11 21:00:00 22.9 7 Este 13 Sur 0 -- -- 42
2020-09-11 20:00:00 24.5 9 Sudeste 19 Sudeste 0 -- -- 39
2020-09-11 19:00:00 27.8 14 Sudeste 22 Sur 0 -- -- 33
2020-09-11 18:00:00 29.1 11 Sudeste 22 Sur 0 -- -- 31
2020-09-11 17:00:00 29.1 11 Sudeste 23 Sur 0 -- -- 31
2020-09-11 16:00:00 28.6 9 Sudeste 26 Sudeste 0 -- -- 30
2020-09-11 15:00:00 27.4 7 Sudeste 19 Sur 0 -- -- 35
2020-09-11 14:00:00 25.2 9 Sur 18 Sur 0 -- -- 40
2020-09-11 13:00:00 23.9 6 Sur 17 Sudeste 0 -- -- 43
2020-09-11 12:00:00 22.6 5 Sur 14 Sur 0 -- -- 49
2020-09-11 11:00:00 22.3 6 Este 11 Este 0 -- -- 49
2020-09-11 10:00:00 18.8 5 Norte 8 Norte 0 -- -- 60
2020-09-11 09:00:00 12 3 Norte 8 Norte 0 -- -- 81
2020-09-11 08:00:00 11.1 0 Calma 6 Norte 0 -- -- 83
2020-09-11 07:00:00 13.3 6 Norte 10 Norte 0 -- -- 79
2020-09-11 06:00:00 11.7 8 Norte 13 Norte 0 -- -- 83
2020-09-11 05:00:00 11.2 6 Norte 8 Norte 0 -- -- 83
2020-09-11 04:00:00 13.6 3 Noroeste 6 Noroeste 0 -- -- 75
2020-09-11 03:00:00 15.2 3 Oeste 9 Oeste 0 -- -- 68
2020-09-11 02:00:00 16 3 Sudoeste 7 Noroeste 0 -- -- 65
2020-09-11 01:00:00 16.9 6 Norte 8 Norte 0 -- -- 64
2020-09-11 00:00:00 17.5 5 Este 12 Norte 0 -- -- 56
2020-09-10 23:00:00 17.8 9 Norte 12 Noroeste 0 -- -- 55
2020-09-10 22:00:00 20.6 4 Norte 9 Sudeste 0 -- -- 48
2020-09-10 21:00:00 22.4 6 Sudeste 13 Sudeste 0 -- -- 45
2020-09-10 20:00:00 25.2 10 Sudeste 20 Sudeste 0 -- -- 38
2020-09-10 19:00:00 27.1 13 Sudeste 21 Sur 0 -- -- 34
2020-09-10 18:00:00 28.3 11 Sur 23 Sur 0 -- -- 34
2020-09-10 17:00:00 27.9 12 Sudeste 21 Sudeste 0 -- -- 33
2020-09-10 16:00:00 27.8 8 Sudeste 21 Sudeste 0 -- -- 33
2020-09-10 15:00:00 26.9 6 Sudeste 21 Este 0 -- -- 35
2020-09-10 14:00:00 25.3 11 Sudeste 18 Sur 0 -- -- 38
2020-09-10 13:00:00 24.9 6 Sudeste 16 Sur 0 -- -- 42
2020-09-10 12:00:00 23 6 Sudeste 17 Sur 0 -- -- 45
2020-09-10 11:00:00 22.9 4 Sur 9 Sur 0 -- -- 46
2020-09-10 10:00:00 19.4 4 Norte 7 Norte 0 -- -- 56
2020-09-10 09:00:00 12.3 4 Norte 7 Norte 0 -- -- 75
2020-09-10 08:00:00 8.6 8 Norte 9 Norte 0 -- -- 85
2020-09-10 07:00:00 10.5 3 Oeste 8 Noroeste 0 -- -- 80
2020-09-10 06:00:00 11.4 5 Norte 9 Oeste 0 -- -- 74
2020-09-10 05:00:00 14.4 5 Noroeste 9 Oeste 0 -- -- 63
2020-09-10 04:00:00 15.2 6 Oeste 12 Oeste 0 -- -- 59
2020-09-10 03:00:00 12.1 3 Norte 12 Oeste 0 -- -- 62
2020-09-10 02:00:00 15.8 7 Sudoeste 13 Oeste 0 -- -- 50
2020-09-10 01:00:00 16.3 3 Noroeste 9 Norte 0 -- -- 54
2020-09-10 00:00:00 14.5 8 Norte 13 Norte 0 -- -- 49
2020-09-09 23:00:00 14.8 8 Norte 9 Norte 0 -- -- 49
2020-09-09 22:00:00 20.1 4 Norte 7 Sudeste 0 -- -- 37
2020-09-09 21:00:00 21.8 6 Sudeste 14 Sudeste 0 -- -- 33
2020-09-09 20:00:00 25.4 10 Sudeste 20 Sudeste 0 -- -- 25
2020-09-09 19:00:00 26.9 13 Sudeste 23 Sudeste 0 -- -- 27
2020-09-09 18:00:00 28.1 8 Sudeste 18 Sur 0 -- -- 23
2020-09-09 17:00:00 28.3 8 Sudeste 20 Sur 0 -- -- 25
2020-09-09 16:00:00 28.5 6 Este 18 Sudeste 0 -- -- 24
2020-09-09 15:00:00 26.3 7 Sur 19 Sudeste 0 -- -- 27
2020-09-09 14:00:00 26 5 Sur 15 Sudeste 0 -- -- 29
2020-09-09 13:00:00 24.4 7 Sudeste 15 Este 0 -- -- 33
2020-09-09 12:00:00 23.9 6 Nordeste 14 Sudeste 0 -- -- 35
2020-09-09 11:00:00 21.8 5 Este 9 Este 0 -- -- 37
2020-09-09 10:00:00 19.7 4 Norte 6 Norte 0 -- -- 42
2020-09-09 09:00:00 14 0 Calma 10 Norte 0 -- -- 59
2020-09-09 08:00:00 8.4 5 Norte 9 Noroeste 0 -- -- 73
2020-09-09 07:00:00 7.9 2 Sudoeste 9 Noroeste 0 -- -- 78
2020-09-09 06:00:00 9.2 2 Sudoeste 10 Norte 0 -- -- 72
2020-09-09 05:00:00 12.4 6 Noroeste 12 Noroeste 0 -- -- 60
2020-09-09 04:00:00 12.3 7 Noroeste 11 Norte 0 -- -- 60
2020-09-09 03:00:00 13 8 Norte 13 Norte 0 -- -- 59
2020-09-09 02:00:00 12.6 6 Norte 11 Norte 0 -- -- 59
2020-09-09 01:00:00 13.2 4 Noroeste 8 Norte 0 -- -- 57
2020-09-09 00:00:00 13.7 8 Norte 12 Norte 0 -- -- 55
2020-09-08 23:00:00 15.2 5 Norte 7 Norte 0 -- -- 51
2020-09-08 22:00:00 18.8 4 Oeste 6 Oeste 0 -- -- 41
2020-09-08 21:00:00 20.6 3 Sudeste 9 Sudeste 0 -- -- 37
2020-09-08 20:00:00 24.4 5 Sudeste 13 Sur 0 -- -- 32
2020-09-08 19:00:00 25.9 6 Sudeste 17 Este 0 -- -- 30
2020-09-08 18:00:00 25.3 9 Este 20 Sudeste 0 -- -- 31
2020-09-08 17:00:00 24.6 8 Sudeste 23 Sudeste 0 -- -- 33
2020-09-08 16:00:00 23 13 Sudeste 23 Sudeste 0 -- -- 35
2020-09-08 15:00:00 22.2 10 Sudeste 24 Sur 0 -- -- 37
2020-09-08 14:00:00 21.3 9 Sudeste 23 Este 0 -- -- 41
2020-09-08 13:00:00 20.1 10 Sudeste 20 Sudeste 0 -- -- 43
2020-09-08 12:00:00 17.9 12 Sudeste 28 Sudeste 0 -- -- 46
2020-09-08 11:00:00 17.4 6 Este 13 Este 0 -- -- 50
2020-09-08 10:00:00 15.7 4 Sudoeste 12 Oeste 0 -- -- 55
2020-09-08 09:00:00 11.8 6 Oeste 16 Oeste 0 -- -- 65
2020-09-08 08:00:00 6.5 5 Noroeste 15 Oeste 0 -- -- 81
2020-09-08 07:00:00 8.2 10 Oeste 15 Oeste 0 -- -- 79
2020-09-08 06:00:00 7.8 6 Sudoeste 13 Sudoeste 0 -- -- 82
2020-09-08 05:00:00 8.1 3 Sudoeste 10 Sudoeste 0 -- -- 80
2020-09-08 04:00:00 10.1 5 Oeste 12 Sudoeste 0 -- -- 72
2020-09-08 03:00:00 10.9 6 Oeste 10 Oeste 0 -- -- 72
2020-09-08 02:00:00 11.5 6 Oeste 11 Oeste 0 -- -- 70
2020-09-08 01:00:00 12.6 7 Oeste 9 Oeste 0 -- -- 68
2020-09-08 00:00:00 13.5 5 Sudoeste 10 Sur 0 -- -- 66
2020-09-07 23:00:00 14.3 5 Sudeste 12 Sudeste 0 -- -- 65
2020-09-07 22:00:00 16.1 5 Sudeste 21 Sudeste 0 -- -- 61
2020-09-07 21:00:00 18.7 7 Sudeste 10 Sur 0 -- -- 47
2020-09-07 20:00:00 22.9 4 Sur 14 Sur 0 -- -- 38
2020-09-07 19:00:00 23.1 9 Sudeste 19 Sur 0 -- -- 37
2020-09-07 18:00:00 22.7 10 Sudeste 20 Este 0 -- -- 38
2020-09-07 17:00:00 23.4 7 Sudeste 22 Sur 0 -- -- 38
2020-09-07 16:00:00 21.4 12 Sur 26 Sur 0 -- -- 42
2020-09-07 15:00:00 20.6 8 Sur 22 Sur 0 -- -- 44
2020-09-07 14:00:00 19.7 7 Sudeste 21 Sudeste 0 -- -- 48
2020-09-07 13:00:00 18.4 12 Sur 22 Sur 0 -- -- 51
2020-09-07 12:00:00 17.2 11 Sur 18 Sudeste 0 -- -- 56
2020-09-07 11:00:00 16.8 5 Sur 12 Sur 0 -- -- 57
2020-09-07 10:00:00 14.3 3 Sur 6 Sudoeste 0 -- -- 67
2020-09-07 09:00:00 9 8 Norte 12 Norte 0 -- -- 83
2020-09-07 08:00:00 6.2 6 Norte 8 Norte 0 -- -- 92
2020-09-07 07:00:00 7.4 3 Norte 7 Oeste 0 -- -- 89
2020-09-07 06:00:00 9.2 5 Oeste 16 Oeste 0 -- -- 84
2020-09-07 05:00:00 10 7 Oeste 10 Oeste 0 -- -- 82
2020-09-07 04:00:00 10.7 6 Sudoeste 11 Sudoeste 0 -- -- 78
2020-09-07 03:00:00 11.1 6 Sudoeste 11 Sudoeste 0 -- -- 78
2020-09-07 02:00:00 11.9 6 Sudoeste 13 Sudoeste 0 -- -- 77
2020-09-07 01:00:00 12.8 6 Sur 12 Sudoeste 0 -- -- 74
2020-09-07 00:00:00 14.2 6 Sudoeste 13 Sur 0 -- -- 70
2020-09-06 23:00:00 15.9 8 Sur 19 Sudeste 0 -- -- 66
2020-09-06 22:00:00 17.9 5 Sudeste 27 Sudeste 0 -- -- 59
2020-09-06 21:00:00 21.3 10 Sudeste 23 Este 0 -- -- 51
2020-09-06 20:00:00 25.4 11 Sudeste 19 Sudeste 0 -- -- 45
2020-09-06 19:00:00 26.5 10 Sudeste 20 Sudeste 0 -- -- 44
2020-09-06 18:00:00 26.8 11 Sudeste 22 Sudeste 0 -- -- 44
2020-09-06 17:00:00 26.7 12 Sudeste 21 Sudeste 0 -- -- 44
2020-09-06 16:00:00 25.6 12 Sur 21 Sur 0 -- -- 47
2020-09-06 15:00:00 24.9 8 Sudeste 20 Sudeste 0 -- -- 48
2020-09-06 14:00:00 22.9 9 Sur 18 Sur 0 -- -- 52
2020-09-06 13:00:00 21.7 8 Sur 17 Sur 0 -- -- 54
2020-09-06 12:00:00 20.4 6 Sur 15 Sur 0 -- -- 60
2020-09-06 11:00:00 18.7 7 Sudeste 12 Sudeste 0 -- -- 65
2020-09-06 10:00:00 17.2 5 Sudoeste 12 Sudoeste 0 -- -- 73
2020-09-06 09:00:00 15.1 3 Oeste 8 Noroeste 0 -- -- 83
2020-09-06 08:00:00 11.9 5 Norte 6 Noroeste 0 -- -- 94
2020-09-06 07:00:00 12 4 Norte 6 Norte 0 -- -- 91
2020-09-06 06:00:00 12.9 0 Calma 6 Sudoeste 0 -- -- 92
2020-09-06 05:00:00 13.1 4 Sudoeste 8 Sudoeste 0 -- -- 91
2020-09-06 04:00:00 13.9 5 Sudoeste 10 Sudoeste 0 -- -- 88
2020-09-06 03:00:00 13.7 9 Sur 18 Sur 0 -- -- 89
2020-09-06 02:00:00 14.7 7 Sudoeste 10 Sudoeste 0 -- -- 84
2020-09-06 01:00:00 16.4 5 Sudoeste 14 Sudoeste 0 -- -- 79
2020-09-06 00:00:00 17.2 6 Sudoeste 12 Sur 0 -- -- 75
2020-09-05 23:00:00 19.2 5 Sudeste 14 Sudeste 0 -- -- 68
2020-09-05 22:00:00 21.6 7 Sudeste 22 Nordeste 0 -- -- 60
2020-09-05 21:00:00 25.2 11 Norte 17 Noroeste 0 -- -- 41
2020-09-05 20:00:00 27.1 5 Sudeste 12 Sudeste 0 -- -- 38
2020-09-05 19:00:00 28 7 Sudeste 14 Sudeste 0 -- -- 36
2020-09-05 18:00:00 28.3 8 Sudeste 20 Sudeste 0 -- -- 36
2020-09-05 17:00:00 30.5 8 Sudeste 22 Sudeste 0 -- -- 32
2020-09-05 16:00:00 29.4 11 Sudeste 22 Sudeste 0 -- -- 34
2020-09-05 15:00:00 28.4 11 Sudeste 18 Sudeste 0 -- -- 36
2020-09-05 14:00:00 27.4 8 Sur 17 Sudeste 0 -- -- 39
2020-09-05 13:00:00 26.5 8 Sudeste 20 Sur 0 -- -- 41
2020-09-05 12:00:00 25 10 Sudeste 19 Sudeste 0 -- -- 42
2020-09-05 11:00:00 24.3 8 Sur 14 Sur 0 -- -- 44
2020-09-05 10:00:00 22.2 0 Calma 8 Nordeste 0 -- -- 55
2020-09-05 09:00:00 17.1 2 Sudeste 7 Nordeste 0 -- -- 66
2020-09-05 08:00:00 13 5 Norte 12 Norte 0 -- -- 81
2020-09-05 07:00:00 12.5 6 Norte 8 Norte 0 -- -- 82
2020-09-05 06:00:00 13.6 6 Norte 8 Norte 0 -- -- 80
2020-09-05 05:00:00 16.1 6 Norte 15 Norte 0 -- -- 74
2020-09-05 04:00:00 15.9 10 Norte 12 Norte 0 -- -- 73
2020-09-05 03:00:00 17.4 0 Calma 11 Norte 0 -- -- 66
2020-09-05 02:00:00 17 8 Norte 13 Norte 0 -- -- 65
2020-09-05 01:00:00 18.3 7 Norte 10 Norte 0 -- -- 58
2020-09-05 00:00:00 19.6 5 Norte 11 Noroeste 0 -- -- 54
2020-09-04 23:00:00 21.3 6 Noroeste 19 Noroeste 0 -- -- 45
2020-09-04 22:00:00 23.5 9 Oeste 24 Noroeste 0 -- -- 38
2020-09-04 21:00:00 25.6 12 Noroeste 18 Oeste 0 -- -- 33
2020-09-04 20:00:00 29.9 9 Nordeste 18 Nordeste 0 -- -- 28
2020-09-04 19:00:00 31.8 14 Nordeste 29 Este 0 -- -- 27
2020-09-04 18:00:00 32.6 12 Este 27 Sudoeste 0 -- -- 26
2020-09-04 17:00:00 31.8 19 Sudeste 44 Sudeste 0 -- -- 22
2020-09-04 16:00:00 31.2 13 Sudeste 28 Sudeste 0 -- -- 26
2020-09-04 15:00:00 30 12 Sudeste 24 Sudeste 0 -- -- 29
2020-09-04 14:00:00 27.7 13 Sudeste 20 Sudeste 0 -- -- 31
2020-09-04 13:00:00 27.2 9 Sur 16 Sudeste 0 -- -- 31
2020-09-04 12:00:00 26.1 6 Sudeste 15 Este 0 -- -- 34
2020-09-04 11:00:00 24.4 4 Sudeste 8 Sudeste 0 -- -- 36
2020-09-04 10:00:00 21.6 0 Calma 3 Este 0 -- -- 49
2020-09-04 09:00:00 14.1 3 Norte 7 Norte 0 -- -- 67
2020-09-04 08:00:00 10.5 3 Norte 6 Norte 0 -- -- 76
2020-09-04 07:00:00 12.2 3 Nordeste 6 Nordeste 0 -- -- 68
2020-09-04 06:00:00 12.3 0 Calma 6 Nordeste 0 -- -- 67
2020-09-04 05:00:00 13.7 2 Sur 4 Sudoeste 0 -- -- 63
2020-09-04 04:00:00 14.4 2 Oeste 6 Norte 0 -- -- 59
2020-09-04 03:00:00 14.3 0 Calma 6 Sudeste 0 -- -- 61
2020-09-04 02:00:00 15.8 3 Norte 11 Norte 0 -- -- 56
2020-09-04 01:00:00 17.1 8 Norte 12 Norte 0 -- -- 53
2020-09-04 00:00:00 14.7 8 Norte 9 Norte 0 -- -- 64
2020-09-03 23:00:00 20.9 4 Noroeste 7 Noroeste 0 -- -- 45
2020-09-03 22:00:00 21.8 0 Calma 9 Sudeste 0 -- -- 45
2020-09-03 21:00:00 23.6 6 Sudeste 15 Sudeste 0 -- -- 42
2020-09-03 20:00:00 27.4 10 Sudeste 21 Sudeste 0 -- -- 35
2020-09-03 19:00:00 28.8 13 Sudeste 22 Sudeste 0 -- -- 31
2020-09-03 18:00:00 29.5 11 Sudeste 26 Sudeste 0 -- -- 32
2020-09-03 17:00:00 29.4 11 Sudeste 24 Sudeste 0 -- -- 33
2020-09-03 16:00:00 28.4 13 Sudeste 25 Sudeste 0 -- -- 35
2020-09-03 15:00:00 27.2 11 Sudeste 22 Sur 0 -- -- 38
2020-09-03 14:00:00 26.1 9 Sudeste 19 Sudeste 0 -- -- 40
2020-09-03 13:00:00 24.6 7 Sur 15 Sudeste 0 -- -- 44
2020-09-03 12:00:00 22.3 6 Sudeste 14 Sudeste 0 -- -- 48
2020-09-03 11:00:00 21.3 4 Sur 10 Sur 0 -- -- 49
2020-09-03 10:00:00 18.5 4 Nordeste 8 Norte 0 -- -- 60
2020-09-03 09:00:00 12.4 4 Norte 8 Norte 0 -- -- 79
2020-09-03 08:00:00 9.5 5 Norte 8 Norte 0 -- -- 90
2020-09-03 07:00:00 8.7 0 Calma 7 Norte 0 -- -- 90
2020-09-03 06:00:00 8.7 5 Norte 6 Norte 0 -- -- 89
2020-09-03 05:00:00 10 0 Calma 6 Norte 0 -- -- 85
2020-09-03 04:00:00 12.1 0 Calma 8 Norte 0 -- -- 75
2020-09-03 03:00:00 14 6 Norte 10 Norte 0 -- -- 69
2020-09-03 02:00:00 13.2 8 Norte 15 Sudeste 0 -- -- 68
2020-09-03 01:00:00 13.7 6 Norte 10 Norte 0 -- -- 69
2020-09-03 00:00:00 13.1 5 Norte 8 Norte 0 -- -- 71
2020-09-02 23:00:00 17.8 6 Noroeste 7 Noroeste 0 -- -- 55
2020-09-02 22:00:00 19.5 0 Calma 8 Sudeste 0 -- -- 52
2020-09-02 21:00:00 20.8 5 Sudeste 15 Sudeste 0 -- -- 48
2020-09-02 20:00:00 24.4 10 Sudeste 21 Sudeste 0 -- -- 39
2020-09-02 19:00:00 25.4 13 Sudeste 19 Sudeste 0 -- -- 37
2020-09-02 18:00:00 26.4 7 Sudeste 18 Sudeste 0 -- -- 34
2020-09-02 17:00:00 26.1 6 Sudeste 21 Sudeste 0 -- -- 34
2020-09-02 16:00:00 25.1 5 Oeste 17 Sudeste 0 -- -- 38
2020-09-02 15:00:00 23.6 7 Sur 18 Sudeste 0 -- -- 43
2020-09-02 14:00:00 21.1 9 Sur 17 Sur 0 -- -- 46
2020-09-02 13:00:00 20.1 9 Sudeste 22 Oeste 0 -- -- 52
2020-09-02 12:00:00 18.8 9 Sur 19 Sudeste 0 -- -- 55
2020-09-02 11:00:00 17.4 6 Sur 16 Sur 0 -- -- 59
2020-09-02 10:00:00 16 5 Sudoeste 9 Oeste 0 -- -- 66
2020-09-02 09:00:00 12 2 Nordeste 8 Oeste 0 -- -- 77
2020-09-02 08:00:00 8.6 4 Noroeste 5 Noroeste 0 -- -- 94
2020-09-02 07:00:00 8.5 0 Calma 4 Norte 0 -- -- 94
2020-09-02 06:00:00 10.2 0 Calma 8 Oeste 0 -- -- 89
2020-09-02 05:00:00 10.1 5 Sudoeste 7 Sudoeste 0 -- -- 91
2020-09-02 04:00:00 10 0 Calma 6 Sur 0 -- -- 89
2020-09-02 03:00:00 11.5 5 Sur 6 Sur 0 -- -- 86
2020-09-02 02:00:00 12.8 3 Oeste 13 Oeste 0 -- -- 82
2020-09-02 01:00:00 13.4 9 Oeste 11 Oeste 0 -- -- 80
2020-09-02 00:00:00 14.1 0 Calma 11 Nordeste 0 -- -- 76
2020-09-01 23:00:00 14.6 2 Norte 16 Norte 0 -- -- 74
2020-09-01 22:00:00 16.7 12 Norte 21 Nordeste 0 -- -- 66
2020-09-01 21:00:00 19.1 17 Nordeste 23 Nordeste 0 -- -- 56
2020-09-01 20:00:00 21.9 8 Sudeste 14 Sudeste 0 -- -- 37
2020-09-01 19:00:00 25.3 11 Sudeste 17 Sudeste 0 -- -- 31
2020-09-01 18:00:00 26 11 Sudeste 22 Sur 0 -- -- 30
2020-09-01 17:00:00 26.8 5 Este 20 Sur 0 -- -- 29
2020-09-01 16:00:00 25.7 9 Este 18 Este 0 -- -- 31
2020-09-01 15:00:00 24.1 8 Sudeste 18 Sudeste 0 -- -- 33
2020-09-01 14:00:00 23.5 7 Este 22 Sudeste 0 -- -- 35
2020-09-01 13:00:00 21.8 7 Sudeste 14 Sudeste 0 -- -- 38
2020-09-01 12:00:00 23.2 4 Nordeste 12 Este 0 -- -- 38
2020-09-01 11:00:00 21 3 Norte 11 Nordeste 0 -- -- 42
2020-09-01 10:00:00 19 4 Nordeste 8 Este 0 -- -- 47
2020-09-01 09:00:00 13.1 3 Noroeste 14 Norte 0 -- -- 67
2020-09-01 08:00:00 11.1 3 Norte 10 Norte 0 -- -- 69
2020-09-01 07:00:00 10.9 4 Nordeste 9 Oeste 0 -- -- 73
2020-09-01 06:00:00 11.6 3 Sudoeste 9 Norte 0 -- -- 70
2020-09-01 05:00:00 11.2 6 Nordeste 9 Norte 0 -- -- 73
2020-09-01 04:00:00 11.8 7 Norte 9 Norte 0 -- -- 69
2020-09-01 03:00:00 13.1 0 Calma 8 Norte 0 -- -- 62
2020-09-01 02:00:00 12 4 Norte 14 Noroeste 0 -- -- 68
2020-09-01 01:00:00 11.8 10 Norte 12 Norte 0 -- -- 67
2020-09-01 00:00:00 11.2 7 Norte 8 Norte 0 -- -- 68
2020-08-31 23:00:00 15.7 5 Oeste 7 Oeste 0 -- -- 54
2020-08-31 22:00:00 15.7 0 Calma 8 Sudeste 0 -- -- 55
2020-08-31 21:00:00 17 5 Sudeste 11 Sudeste 0 -- -- 53
2020-08-31 20:00:00 21.8 3 Este 9 Sudeste 0 -- -- 39
2020-08-31 19:00:00 20.3 4 Sudeste 9 Nordeste 0 -- -- 41
2020-08-31 18:00:00 20.8 5 Este 19 Sur 0 -- -- 39
2020-08-31 17:00:00 22.3 10 Sudeste 20 Sudeste 0 -- -- 35
2020-08-31 16:00:00 19.7 9 Sudeste 21 Sur 0 -- -- 40
2020-08-31 15:00:00 20.1 5 Oeste 19 Sudeste 0 -- -- 40
2020-08-31 14:00:00 18.3 8 Sur 18 Sudeste 0 -- -- 45
2020-08-31 13:00:00 16.6 7 Sudeste 21 Sur 0 -- -- 50
2020-08-31 12:00:00 15.1 10 Sur 16 Sur 0 -- -- 54
2020-08-31 11:00:00 13.5 8 Sur 14 Sudeste 0 -- -- 58
2020-08-31 10:00:00 12.7 3 Nordeste 5 Nordeste 0 -- -- 64
2020-08-31 09:00:00 8.2 3 Norte 5 Nordeste 0 -- -- 79
2020-08-31 08:00:00 3.5 0 Calma 6 Norte 0 -- -- 95
2020-08-31 07:00:00 4.4 6 Norte 8 Norte 0 -- -- 93
2020-08-31 06:00:00 3.8 6 Norte 8 Noroeste 0 -- -- 90
2020-08-31 05:00:00 5.9 7 Noroeste 9 Norte 0 -- -- 90
2020-08-31 04:00:00 5.8 6 Norte 7 Norte 0 -- -- 87
2020-08-31 03:00:00 6.1 5 Norte 6 Nordeste 0 -- -- 85
2020-08-31 02:00:00 9.1 4 Norte 8 Noroeste 0 -- -- 75
2020-08-31 01:00:00 9.5 8 Noroeste 10 Noroeste 0 -- -- 73
2020-08-31 00:00:00 10.3 5 Nordeste 11 Norte 0 -- -- 67
2020-08-30 23:00:00 11.1 11 Norte 14 Norte 0 -- -- 63
2020-08-30 22:00:00 12.9 8 Nordeste 12 Nordeste 0 -- -- 53
2020-08-30 21:00:00 15.6 6 Sur 13 Sudeste 0 -- -- 42
2020-08-30 20:00:00 20.1 6 Este 16 Sudeste 0 -- -- 32
2020-08-30 19:00:00 20.6 9 Este 19 Este 0 -- -- 32
2020-08-30 18:00:00 18.4 5 Nordeste 21 Nordeste 0 -- -- 35
2020-08-30 17:00:00 20.4 8 Nordeste 27 Nordeste 0 -- -- 33
2020-08-30 16:00:00 19.2 9 Este 21 Nordeste 0 -- -- 33
2020-08-30 15:00:00 18.8 7 Sur 24 Este 0 -- -- 34
2020-08-30 14:00:00 17.7 7 Norte 21 Norte 0 -- -- 38
2020-08-30 13:00:00 18.1 8 Nordeste 20 Nordeste 0 -- -- 38
2020-08-30 12:00:00 16.4 10 Este 22 Noroeste 0 -- -- 47
2020-08-30 11:00:00 13.7 14 Norte 21 Noroeste 0 -- -- 56
2020-08-30 10:00:00 10 5 Norte 10 Nordeste 0 -- -- 80
2020-08-30 09:00:00 8.1 5 Norte 8 Norte 0 -- -- 85
2020-08-30 08:00:00 5.5 9 Norte 10 Norte 0 -- -- 91
2020-08-30 07:00:00 5.7 4 Norte 9 Noroeste 0 -- -- 89
2020-08-30 06:00:00 6.3 3 Norte 5 Sur 0 -- -- 85
2020-08-30 05:00:00 5.9 5 Norte 11 Noroeste 0 -- -- 85
2020-08-30 04:00:00 6.5 5 Nordeste 13 Noroeste 0 -- -- 82
2020-08-30 03:00:00 7.5 4 Sur 18 Noroeste 0 -- -- 78
2020-08-30 02:00:00 8 5 Norte 13 Noroeste 0 -- -- 76
2020-08-30 01:00:00 8.7 7 Noroeste 21 Noroeste 0 -- -- 73
2020-08-30 00:00:00 9.2 6 Noroeste 17 Noroeste 0 -- -- 75
2020-08-29 23:00:00 9.7 10 Noroeste 25 Norte 0 -- -- 75
2020-08-29 22:00:00 10.9 17 Norte 27 Norte 0 -- -- 66
2020-08-29 21:00:00 12.4 7 Norte 33 Norte 0 -- -- 60
2020-08-29 20:00:00 17.2 20 Norte 36 Norte 0 -- -- 48
2020-08-29 19:00:00 18.3 21 Norte 41 Norte 0 -- -- 45
2020-08-29 18:00:00 17.3 23 Noroeste 46 Norte 0 -- -- 49
2020-08-29 17:00:00 19.2 21 Noroeste 39 Noroeste 0 -- -- 46
2020-08-29 16:00:00 17.6 18 Noroeste 36 Norte 0 -- -- 50
2020-08-29 15:00:00 18.4 17 Noroeste 34 Norte 0 -- -- 47
2020-08-29 14:00:00 17.6 25 Norte 36 Norte 0 -- -- 48
2020-08-29 13:00:00 16.2 18 Noroeste 33 Noroeste 0 -- -- 56
2020-08-29 12:00:00 14.2 19 Noroeste 36 Norte 0 -- -- 63
2020-08-29 11:00:00 14.4 18 Noroeste 32 Noroeste 0 -- -- 61
2020-08-29 10:00:00 13.8 16 Noroeste 32 Noroeste 0 -- -- 61
2020-08-29 09:00:00 12.3 12 Noroeste 26 Noroeste 0 -- -- 67
2020-08-29 08:00:00 9 8 Noroeste 20 Noroeste 0 -- -- 84
2020-08-29 07:00:00 9.4 9 Noroeste 19 Noroeste 0 -- -- 81
2020-08-29 06:00:00 9.3 9 Noroeste 18 Oeste 0 -- -- 82
2020-08-29 05:00:00 9.4 9 Oeste 23 Noroeste 0 -- -- 82
2020-08-29 04:00:00 9.5 11 Noroeste 28 Oeste 0 -- -- 79
2020-08-29 03:00:00 9.6 12 Noroeste 28 Noroeste 0 -- -- 75
2020-08-29 02:00:00 9.9 9 Oeste 21 Noroeste 0 -- -- 72
2020-08-29 01:00:00 10.4 6 Noroeste 24 Norte 0 -- -- 69
2020-08-29 00:00:00 11.6 17 Norte 27 Norte 0 -- -- 62
2020-08-28 23:00:00 11.6 11 Norte 25 Noroeste 0 -- -- 67
2020-08-28 22:00:00 12.6 14 Noroeste 35 Noroeste 0 -- -- 65
2020-08-28 21:00:00 14.4 18 Noroeste 33 Noroeste 0 -- -- 59
2020-08-28 20:00:00 16.8 17 Noroeste 36 Noroeste 0 -- -- 48
2020-08-28 19:00:00 19.6 17 Noroeste 37 Noroeste 0 -- -- 40
2020-08-28 18:00:00 19.7 23 Noroeste 40 Noroeste 0 -- -- 39
2020-08-28 17:00:00 20.5 22 Noroeste 42 Noroeste 0 -- -- 41
2020-08-28 16:00:00 20.6 22 Noroeste 39 Oeste 0 -- -- 42
2020-08-28 15:00:00 20.9 19 Noroeste 37 Noroeste 0 -- -- 43
2020-08-28 14:00:00 20.7 19 Noroeste 36 Noroeste 0 -- -- 43
2020-08-28 13:00:00 20.3 14 Noroeste 34 Oeste 0 -- -- 42
2020-08-28 12:00:00 18.9 15 Noroeste 32 Oeste 0 -- -- 45
2020-08-28 11:00:00 17.8 15 Noroeste 32 Oeste 0 -- -- 54
2020-08-28 10:00:00 16.8 22 Noroeste 41 Noroeste 0 -- -- 57
2020-08-28 09:00:00 16.1 15 Noroeste 26 Noroeste 0 -- -- 66
2020-08-28 08:00:00 13.5 13 Noroeste 23 Noroeste 0 -- -- 78
2020-08-28 07:00:00 13.8 9 Norte 21 Noroeste 0 -- -- 83
2020-08-28 06:00:00 15.4 4 Noroeste 18 Norte 0 -- -- 77
2020-08-28 05:00:00 17 17 Norte 27 Noroeste 0 -- -- 74
2020-08-28 04:00:00 17.5 6 Oeste 11 Oeste 0 -- -- 77
2020-08-28 03:00:00 17.9 4 Noroeste 20 Noroeste 0 -- -- 77
2020-08-28 02:00:00 18.4 9 Noroeste 34 Noroeste 0 -- -- 73
2020-08-28 01:00:00 18.6 17 Noroeste 29 Noroeste 0 -- -- 72
2020-08-28 00:00:00 19 10 Noroeste 32 Noroeste 0 -- -- 70